Time;durP1;ratioP1;P1;durP2;ratioP2;P2;SDS_P1;SDS_P2;PMS_P1;PMS_P2;Temp;Humidity;BMP_temperature;BMP_pressure;BME280_temperature;BME280_humidity;BME280_pressure;Samples;Min_cycle;Max_cycle;Signal;HPM_P1;HPM_P2
2023/12/21 00:01:18;;;;;;;13.90;10.15;;;;;;;-145.63;61.35;39399.75;5051339;28;20342;-62
2023/12/21 00:03:44;;;;;;;14.02;9.85;;;;;;;-145.63;61.60;39370.41;5048172;28;20033;-63
2023/12/21 00:06:10;;;;;;;14.15;10.10;;;;;;;-145.63;61.21;39419.31;5060944;28;20025;-63
2023/12/21 00:08:35;;;;;;;15.35;9.82;;;;;;;-145.63;60.94;39378.22;5061263;28;20048;-63
2023/12/21 00:11:01;;;;;;;10.70;7.95;;;;;;;-145.63;60.86;39399.75;5061851;28;20033;-62
2023/12/21 00:13:27;;;;;;;10.52;7.53;;;;;;;-145.63;60.26;39376.28;5050233;28;20096;-62
2023/12/21 00:15:53;;;;;;;10.40;8.00;;;;;;;-145.63;60.66;39431.03;5047851;28;20029;-63
2023/12/21 00:18:19;;;;;;;8.90;6.97;;;;;;;-145.63;60.23;39401.69;5061971;28;20042;-62
2023/12/21 00:20:45;;;;;;;11.57;7.45;;;;;;;-145.63;60.25;39421.25;5062026;28;20021;-63
2023/12/21 00:23:11;;;;;;;9.15;6.78;;;;;;;-145.63;60.25;39384.09;5055451;28;20036;-63
2023/12/21 00:25:36;;;;;;;9.25;6.65;;;;;;;-145.63;59.96;39393.88;5061953;28;20427;-63
2023/12/21 00:28:02;;;;;;;9.60;7.15;;;;;;;-145.63;59.79;39419.31;5061973;28;20318;-63
2023/12/21 00:30:28;;;;;;;10.23;7.07;;;;;;;-145.63;60.09;39399.75;5062347;28;20072;-63
2023/12/21 00:32:54;;;;;;;9.13;6.43;;;;;;;-145.63;60.04;39436.91;5061811;28;20065;-64
2023/12/21 00:35:20;;;;;;;6.35;5.35;;;;;;;-145.63;59.87;39409.53;5042822;28;20056;-62
2023/12/21 00:37:46;;;;;;;7.13;5.88;;;;;;;-145.63;59.82;39348.88;5074723;28;20090;-62
2023/12/21 00:40:12;;;;;;;6.90;5.32;;;;;;;-145.63;60.25;39399.75;5072522;28;20021;-62
2023/12/21 00:42:41;;;;;;;7.60;5.70;;;;;;;-145.63;59.80;39391.91;5057363;28;20025;-62
2023/12/21 00:45:08;;;;;;;6.47;4.72;;;;;;;-145.63;60.31;39415.38;5042634;28;20021;-62
2023/12/21 00:47:34;;;;;;;5.78;4.75;;;;;;;-145.63;60.28;39376.28;5062058;28;20025;-63
2023/12/21 00:50:00;;;;;;;5.97;5.38;;;;;;;-145.63;59.92;39372.34;5046823;28;20314;-62
2023/12/21 00:52:26;;;;;;;5.93;4.43;;;;;;;-145.63;60.23;39376.28;5053056;28;20064;-61
2023/12/21 00:54:52;;;;;;;5.32;4.43;;;;;;;-145.63;60.60;39384.09;5061744;28;20096;-61
2023/12/21 00:57:18;;;;;;;5.13;4.63;;;;;;;-145.63;61.21;39344.97;5061275;28;20254;-62
2023/12/21 00:59:43;;;;;;;6.45;4.53;;;;;;;-145.63;61.79;39362.59;5061684;28;20029;-62
2023/12/21 01:02:09;;;;;;;4.82;4.32;;;;;;;-145.63;62.05;39354.75;5044378;28;20028;-61
2023/12/21 01:04:35;;;;;;;5.00;4.22;;;;;;;-145.63;62.55;39352.81;5054118;28;20025;-61
2023/12/21 01:07:01;;;;;;;4.95;4.40;;;;;;;-145.63;62.25;39382.13;5060772;28;20209;-61
2023/12/21 01:09:27;;;;;;;6.35;4.47;;;;;;;-145.63;62.61;39401.69;5065374;28;20037;-61
2023/12/21 01:11:53;;;;;;;5.57;4.47;;;;;;;-145.63;62.98;39376.28;5064058;28;20195;-63
2023/12/21 01:14:19;;;;;;;5.03;4.43;;;;;;;-145.63;62.87;39346.94;5046775;28;20040;-62
2023/12/21 01:16:45;;;;;;;6.53;4.95;;;;;;;-145.63;62.93;39376.28;5058643;28;20021;-63
2023/12/21 01:19:10;;;;;;;5.60;4.32;;;;;;;-145.63;63.22;39350.84;5064930;28;20064;-62
2023/12/21 01:21:37;;;;;;;6.20;4.90;;;;;;;-145.63;62.63;39384.09;5060961;28;20353;-65
2023/12/21 01:24:04;;;;;;;4.63;4.10;;;;;;;-145.63;62.62;39384.09;5045216;28;20037;-62
2023/12/21 01:26:30;;;;;;;6.47;4.72;;;;;;;-145.63;62.72;39368.44;5064180;28;20087;-62
2023/12/21 01:28:56;;;;;;;5.82;5.20;;;;;;;-145.63;63.07;39372.34;5065161;28;20309;-63
2023/12/21 01:31:22;;;;;;;4.70;4.30;;;;;;;-145.63;63.23;39352.81;5064855;28;20065;-63
2023/12/21 01:33:48;;;;;;;4.70;4.10;;;;;;;-145.63;63.03;39388.00;5059257;28;20040;-62
2023/12/21 01:36:14;;;;;;;5.00;4.03;;;;;;;-145.63;62.88;39366.50;5050677;28;20120;-63
2023/12/21 01:38:40;;;;;;;5.32;4.20;;;;;;;-145.63;62.41;39388.00;5064863;28;20341;-63
2023/12/21 01:41:06;;;;;;;4.75;3.92;;;;;;;-145.63;62.29;39395.84;5048287;28;20040;-64
2023/12/21 01:43:31;;;;;;;3.95;3.55;;;;;;;-145.63;61.98;39388.00;5056080;28;20029;-64
2023/12/21 01:45:59;;;;;;;3.85;3.42;;;;;;;-145.63;61.90;39413.44;5057785;28;20072;-64
2023/12/21 01:48:29;;;;;;;3.60;3.17;;;;;;;-145.63;61.86;39391.91;5046919;28;20029;-64
2023/12/21 01:50:57;;;;;;;3.72;3.08;;;;;;;-145.63;61.75;39409.53;5064504;28;20028;-64
2023/12/21 01:53:23;;;;;;;3.78;3.22;;;;;;;-145.63;61.41;39372.34;5045943;28;20025;-63
2023/12/21 01:55:48;;;;;;;3.60;3.00;;;;;;;-145.63;61.42;39366.50;5058301;28;20028;-62
2023/12/21 01:58:15;;;;;;;4.82;3.33;;;;;;;-145.63;61.37;39378.22;5064276;28;20541;-62
2023/12/21 02:00:40;;;;;;;4.18;3.13;;;;;;;-145.63;61.21;39415.38;5059984;28;20048;-63
2023/12/21 02:03:06;;;;;;;3.67;3.22;;;;;;;-145.63;61.04;39356.72;5044324;28;20386;-63
2023/12/21 02:05:32;;;;;;;3.80;3.05;;;;;;;-145.63;61.22;39344.97;5083705;28;20029;-63
2023/12/21 02:07:58;;;;;;;3.05;2.42;;;;;;;-145.63;60.88;39366.50;5069223;28;20310;-64
2023/12/21 02:10:24;;;;;;;3.50;2.67;;;;;;;-145.63;60.76;39370.41;5063995;28;20260;-63
2023/12/21 02:12:50;;;;;;;2.97;2.47;;;;;;;-145.63;61.05;39386.06;5058630;28;20026;-64
2023/12/21 02:15:16;;;;;;;2.72;2.20;;;;;;;-145.63;61.11;39352.81;5044569;28;20056;-63
2023/12/21 02:17:46;;;;;;;2.63;2.10;;;;;;;-145.63;61.13;39407.56;5064018;28;20256;-63
2023/12/21 02:20:32;;;;;;;2.72;2.35;;;;;;;-145.63;60.75;39346.94;5060355;28;20025;-62
2023/12/21 02:23:00;;;;;;;3.47;2.30;;;;;;;-145.63;61.16;39364.53;5048682;28;20072;-62
2023/12/21 02:25:26;;;;;;;2.92;2.58;;;;;;;-145.63;61.03;39372.34;5054231;28;20036;-62
2023/12/21 02:27:52;;;;;;;2.63;2.38;;;;;;;-145.63;60.98;39374.31;5063898;28;20320;-63
2023/12/21 02:30:18;;;;;;;3.22;2.70;;;;;;;-145.63;60.90;39366.50;5063320;28;20070;-64
2023/12/21 02:32:44;;;;;;;3.08;2.30;;;;;;;-145.63;60.94;39348.88;5063792;28;20028;-64
2023/12/21 02:35:09;;;;;;;2.95;2.30;;;;;;;-145.63;60.63;39399.75;5047285;28;20088;-63
2023/12/21 02:37:35;;;;;;;3.83;2.85;;;;;;;-145.63;60.95;39470.16;5060802;28;20104;-64
2023/12/21 02:40:01;;;;;;;3.60;2.67;;;;;;;-145.63;61.11;39356.72;5056772;28;20040;-64
2023/12/21 02:42:27;;;;;;;4.00;3.17;;;;;;;-145.63;61.24;39356.72;5045450;28;20117;-63
2023/12/21 02:44:52;;;;;;;4.57;3.03;;;;;;;-145.63;60.88;39329.34;5063357;28;20112;-63
2023/12/21 02:47:18;;;;;;;3.50;3.20;;;;;;;-145.63;60.95;39362.59;5045617;28;20032;-62
2023/12/21 02:49:44;;;;;;;4.82;2.92;;;;;;;-145.63;60.86;39370.41;5046754;28;20040;-64
2023/12/21 02:52:09;;;;;;;4.03;3.20;;;;;;;-145.63;60.96;39386.06;5051067;28;20029;-63
2023/12/21 02:54:35;;;;;;;4.28;2.83;;;;;;;-145.63;60.90;39348.88;5063163;28;20059;-64
2023/12/21 02:57:01;;;;;;;3.95;3.10;;;;;;;-145.63;60.92;39151.38;5061786;28;20071;-62
2023/12/21 02:59:26;;;;;;;4.53;2.92;;;;;;;-145.63;60.92;39378.22;5062654;28;20017;-62
2023/12/21 03:01:52;;;;;;;4.45;3.42;;;;;;;-145.63;60.85;39407.56;5063077;28;20070;-61
2023/12/21 03:04:18;;;;;;;4.25;3.00;;;;;;;-145.63;60.98;39378.22;5055983;28;20205;-60
2023/12/21 03:06:44;;;;;;;5.00;3.63;;;;;;;-145.63;60.92;39376.28;5058986;28;20022;-61
2023/12/21 03:09:10;;;;;;;4.28;3.28;;;;;;;-145.63;60.60;39388.00;5041823;28;20032;-61
2023/12/21 03:11:36;;;;;;;6.43;3.30;;;;;;;-145.63;61.00;39368.44;5081207;28;20221;-62
2023/12/21 03:14:03;;;;;;;4.13;2.97;;;;;;;-145.63;61.03;39360.63;5068004;28;20033;-62
2023/12/21 03:16:28;;;;;;;6.55;4.88;;;;;;;-145.63;61.46;39356.72;5058682;28;20224;-61
2023/12/21 03:18:54;;;;;;;3.53;3.20;;;;;;;-145.63;61.05;39393.88;5062964;28;20100;-62
2023/12/21 03:21:20;;;;;;;3.85;3.22;;;;;;;-145.63;61.19;39378.22;5061699;28;20029;-61
2023/12/21 03:23:45;;;;;;;3.85;3.10;;;;;;;-145.63;61.15;39352.81;5059432;28;20329;-62
2023/12/21 03:26:11;;;;;;;4.80;3.13;;;;;;;-145.63;61.38;39356.72;5062568;28;20305;-62
2023/12/21 03:28:45;;;;;;;3.28;2.97;;;;;;;-145.63;61.02;39348.88;5062815;28;20036;-62
2023/12/21 03:31:11;;;;;;;3.58;2.70;;;;;;;-145.63;61.13;39403.66;5061682;28;20025;-62
2023/12/21 03:33:36;;;;;;;3.33;2.55;;;;;;;-145.63;61.19;39352.81;5062428;28;20043;-63
2023/12/21 03:36:03;;;;;;;3.53;2.75;;;;;;;-145.63;60.79;39384.09;5062439;28;20363;-63
2023/12/21 03:38:29;;;;;;;4.35;3.10;;;;;;;-145.63;60.95;39325.41;5062357;28;20037;-63
2023/12/21 03:40:54;;;;;;;4.22;2.63;;;;;;;-145.63;61.17;39415.38;5048774;28;20374;-61
2023/12/21 03:43:20;;;;;;;3.90;2.40;;;;;;;-145.63;60.89;39397.78;5053609;28;20136;-62
2023/12/21 03:45:46;;;;;;;3.42;2.50;;;;;;;-145.63;61.22;39350.84;5058018;28;20036;-63
2023/12/21 03:48:12;;;;;;;3.83;2.90;;;;;;;-145.63;61.30;39386.06;5042418;28;20025;-64
2023/12/21 03:50:38;;;;;;;4.22;2.75;;;;;;;-145.63;60.83;39366.50;5045248;28;20037;-63
2023/12/21 03:53:07;;;;;;;3.35;2.70;;;;;;;-145.63;61.01;39440.81;5057067;28;20036;-64
2023/12/21 03:55:33;;;;;;;3.10;2.50;;;;;;;-145.63;60.81;39341.06;5062127;28;20021;-64
2023/12/21 03:57:58;;;;;;;3.17;2.35;;;;;;;-145.63;60.92;39366.50;5062351;28;20360;-65
2023/12/21 04:00:25;;;;;;;5.03;2.80;;;;;;;-145.63;60.71;39378.22;5060895;28;20178;-63
2023/12/21 04:02:51;;;;;;;3.15;2.58;;;;;;;-145.63;60.86;39380.19;5042853;28;20029;-63
2023/12/21 04:05:16;;;;;;;3.42;2.67;;;;;;;-145.63;60.99;39411.47;5061808;28;20040;-64
2023/12/21 04:07:42;;;;;;;4.47;2.75;;;;;;;-145.63;60.95;39374.31;5061668;28;20025;-63
2023/12/21 04:10:08;;;;;;;2.92;2.60;;;;;;;-145.63;60.63;39378.22;5062437;28;20198;-64
2023/12/21 04:12:34;;;;;;;3.70;2.50;;;;;;;-145.63;60.90;39374.31;5059915;28;20025;-63
2023/12/21 04:14:59;;;;;;;4.00;3.00;;;;;;;-145.63;61.33;39405.59;5060454;28;20036;-61
2023/12/21 04:17:25;;;;;;;4.95;2.90;;;;;;;-145.63;61.11;39372.34;5061806;28;20033;-62
2023/12/21 04:19:51;;;;;;;2.88;2.38;;;;;;;-145.63;60.76;39389.97;5061925;28;20036;-63
2023/12/21 04:22:17;;;;;;;3.70;2.80;;;;;;;-145.63;60.88;39372.34;5061883;28;20037;-63
2023/12/21 04:24:44;;;;;;;5.35;2.85;;;;;;;-145.63;60.92;39360.63;5058842;28;20131;-64
2023/12/21 04:27:10;;;;;;;3.20;2.50;;;;;;;-145.63;61.51;39372.34;5042000;28;20025;-62
2023/12/21 04:29:39;;;;;;;3.80;2.92;;;;;;;-145.63;60.88;39391.91;5060814;28;20029;-63
2023/12/21 04:32:06;;;;;;;3.97;3.10;;;;;;;-145.63;60.86;39401.69;5061995;28;20055;-62
2023/12/21 04:34:32;;;;;;;4.82;3.58;;;;;;;-145.63;60.44;39391.91;5051765;28;20063;-62
2023/12/21 04:36:57;;;;;;;6.65;3.33;;;;;;;-145.63;61.06;39395.84;5048196;28;20037;-62
2023/12/21 04:39:23;;;;;;;4.88;2.90;;;;;;;-145.63;60.84;39368.44;5042318;28;20367;-64
2023/12/21 04:41:49;;;;;;;4.65;2.75;;;;;;;-145.63;60.82;39391.91;5063948;28;20294;-65
2023/12/21 04:44:15;;;;;;;5.82;3.50;;;;;;;-145.63;61.13;39393.88;5065523;28;20029;-64
2023/12/21 04:46:41;;;;;;;7.10;3.42;;;;;;;-145.63;60.91;39384.09;5054185;28;20052;-65
2023/12/21 04:49:07;;;;;;;6.45;3.00;;;;;;;-145.63;61.05;39513.19;5047759;28;20389;-63
2023/12/21 04:51:34;;;;;;;5.07;3.40;;;;;;;-145.63;60.64;39356.72;5046794;28;20089;-66
2023/12/21 04:53:59;;;;;;;7.25;2.90;;;;;;;-145.63;60.83;39382.13;5065229;28;20028;-63
2023/12/21 04:56:25;;;;;;;5.00;3.50;;;;;;;-145.63;60.86;39364.53;5074465;28;20364;-64
2023/12/21 04:58:51;;;;;;;5.88;3.10;;;;;;;-145.63;60.78;39384.09;5053113;28;20241;-64
2023/12/21 05:01:16;;;;;;;6.47;3.70;;;;;;;-145.63;61.12;39388.00;5052659;28;20064;-63
2023/12/21 05:03:42;;;;;;;5.90;3.47;;;;;;;-145.63;60.91;39374.31;5065111;28;20033;-63
2023/12/21 05:06:08;;;;;;;4.25;2.90;;;;;;;-145.63;60.70;39348.88;5064166;28;20025;-62
2023/12/21 05:08:34;;;;;;;4.35;2.60;;;;;;;-145.63;60.20;39358.66;5064886;28;20024;-63
2023/12/21 05:11:00;;;;;;;5.65;2.97;;;;;;;-145.63;60.54;39401.69;5064774;28;20301;-63
2023/12/21 05:13:26;;;;;;;5.70;2.70;;;;;;;-145.63;60.53;39350.84;5064976;28;20025;-62
2023/12/21 05:15:52;;;;;;;4.35;2.50;;;;;;;-145.63;60.32;39382.13;5063459;28;20029;-62
2023/12/21 05:18:17;;;;;;;3.70;2.60;;;;;;;-145.63;60.79;39399.75;5064945;28;20213;-63
2023/12/21 05:20:43;;;;;;;2.50;2.08;;;;;;;-145.63;60.50;39378.22;5064652;28;20029;-62
2023/12/21 05:23:09;;;;;;;5.35;2.13;;;;;;;-145.63;60.82;39389.97;5051914;28;20026;-63
2023/12/21 05:25:35;;;;;;;3.28;2.13;;;;;;;-145.63;60.67;39391.91;5054956;28;20040;-62
2023/12/21 05:28:00;;;;;;;3.95;2.40;;;;;;;-145.63;61.19;39372.34;5063853;28;20040;-64
2023/12/21 05:30:26;;;;;;;4.00;2.28;;;;;;;-145.63;60.88;39378.22;5063933;28;20206;-64
2023/12/21 05:32:52;;;;;;;4.53;2.42;;;;;;;-145.63;60.75;39386.06;5064691;28;20074;-63
2023/12/21 05:35:17;;;;;;;2.83;1.90;;;;;;;-145.63;60.61;39370.41;5063207;28;20045;-64
2023/12/21 05:37:43;;;;;;;2.20;1.92;;;;;;;-145.63;61.00;39403.66;5064263;28;20102;-63
2023/12/21 05:40:09;;;;;;;3.15;1.90;;;;;;;-145.63;60.80;39348.88;5062950;28;20025;-65
2023/12/21 05:42:35;;;;;;;3.88;2.05;;;;;;;-145.63;61.07;39380.19;5062581;28;20033;-64
2023/12/21 05:45:01;;;;;;;3.28;1.83;;;;;;;-145.63;61.00;39388.00;5063975;28;20048;-64
2023/12/21 05:47:27;;;;;;;4.22;2.25;;;;;;;-145.63;60.44;39388.00;5062361;28;20025;-64
2023/12/21 05:49:53;;;;;;;4.72;1.98;;;;;;;-145.63;60.79;39374.31;5063886;28;20368;-64
2023/12/21 05:52:18;;;;;;;6.68;2.13;;;;;;;-145.63;60.23;39378.22;5061752;28;20044;-64
2023/12/21 05:54:44;;;;;;;2.42;1.80;;;;;;;-145.63;60.57;39454.50;5062464;28;20025;-66
2023/12/21 05:57:13;;;;;;;4.20;2.03;;;;;;;-145.63;60.63;39343.03;5063957;28;20072;-65
2023/12/21 05:59:39;;;;;;;3.53;2.13;;;;;;;-145.63;60.77;39374.31;5045609;28;20056;-63
2023/12/21 06:02:05;;;;;;;4.45;2.28;;;;;;;-145.63;60.75;39364.53;5066271;28;20020;-64
2023/12/21 06:04:31;;;;;;;2.70;2.08;;;;;;;-145.63;60.60;39378.22;5062513;28;20029;-63
2023/12/21 06:06:56;;;;;;;5.68;2.03;;;;;;;-145.63;60.73;39356.72;5061844;28;20029;-62
2023/12/21 06:09:22;;;;;;;3.00;1.88;;;;;;;-145.63;60.95;39358.66;5060039;28;20072;-63
2023/12/21 06:11:48;;;;;;;3.47;1.88;;;;;;;-145.63;61.01;39364.53;5056821;28;20056;-63
2023/12/21 06:14:14;;;;;;;2.55;1.73;;;;;;;-145.63;60.61;39388.00;5060735;28;20084;-63
2023/12/21 06:16:40;;;;;;;4.30;2.00;;;;;;;-145.63;60.50;39364.53;5062753;28;20225;-61
2023/12/21 06:19:09;;;;;;;1.95;1.75;;;;;;;-145.63;60.19;39372.34;5063243;28;20374;-61
2023/12/21 06:21:39;;;;;;;2.95;1.80;;;;;;;-145.63;60.72;39391.91;5062016;28;20305;-63
2023/12/21 06:24:06;;;;;;;4.38;1.70;;;;;;;-145.63;60.23;39382.13;5063275;28;20454;-62
2023/12/21 06:26:32;;;;;;;2.65;1.67;;;;;;;-145.63;59.99;39411.47;5046253;28;20030;-64
2023/12/21 06:28:58;;;;;;;2.50;1.67;;;;;;;-145.63;60.14;39415.38;5071608;28;20095;-62
2023/12/21 06:31:24;;;;;;;2.70;2.17;;;;;;;-145.63;60.50;39378.22;5063268;28;20363;-62
2023/12/21 06:33:52;;;;;;;3.03;1.75;;;;;;;-145.63;60.09;39397.78;5060003;28;20197;-62
2023/12/21 06:36:18;;;;;;;5.88;1.85;;;;;;;-145.63;60.14;39372.34;5058533;28;20029;-61
2023/12/21 06:38:43;;;;;;;4.80;2.00;;;;;;;-145.63;60.48;39378.22;5059155;28;20044;-61
2023/12/21 06:41:12;;;;;;;6.05;4.95;;;;;;;-145.63;60.23;39395.84;5057997;28;20063;-61
2023/12/21 06:43:38;;;;;;;5.55;3.13;;;;;;;-145.63;60.93;39372.34;5052769;28;20462;-61
2023/12/21 06:46:04;;;;;;;3.28;2.45;;;;;;;-145.63;60.62;39384.09;5063022;28;20070;-61
2023/12/21 06:48:29;;;;;;;1.85;1.70;;;;;;;-145.63;59.91;39374.31;5062286;28;20025;-62
2023/12/21 06:50:55;;;;;;;2.70;2.00;;;;;;;-145.63;60.11;39372.34;5062222;28;20036;-62
2023/12/21 06:53:21;;;;;;;2.97;1.90;;;;;;;-145.63;60.68;39372.34;5061928;28;20033;-63
2023/12/21 06:55:47;;;;;;;3.53;2.55;;;;;;;-145.63;60.66;39110.28;5062855;28;20032;-63
2023/12/21 06:58:12;;;;;;;3.00;2.20;;;;;;;-145.63;60.00;39393.88;5058430;28;20052;-62
2023/12/21 07:00:38;;;;;;;4.43;2.20;;;;;;;-145.63;60.13;39354.75;5061663;28;20108;-64
2023/12/21 07:03:06;;;;;;;5.38;2.20;;;;;;;-145.63;60.35;39358.66;5059830;28;20040;-62
2023/12/21 07:05:31;;;;;;;6.03;3.03;;;;;;;-145.63;60.03;39378.22;5059547;28;20035;-63
2023/12/21 07:07:57;;;;;;;6.38;4.13;;;;;;;-145.63;59.97;39384.09;5062836;28;20309;-62
2023/12/21 07:10:23;;;;;;;5.47;4.55;;;;;;;-145.63;60.19;39360.63;5062294;28;20032;-62
2023/12/21 07:12:49;;;;;;;3.72;2.70;;;;;;;-145.63;60.22;39374.31;5060003;28;20091;-61
2023/12/21 07:15:16;;;;;;;4.60;2.90;;;;;;;-145.63;60.40;39397.78;5042641;28;20108;-62
2023/12/21 07:17:42;;;;;;;6.85;4.05;;;;;;;-145.63;59.87;39378.22;5060909;28;20020;-62
2023/12/21 07:20:08;;;;;;;3.40;2.65;;;;;;;-145.63;59.92;39376.28;5047790;28;20075;-62
2023/12/21 07:22:34;;;;;;;8.25;4.63;;;;;;;-145.63;60.45;39372.34;5061164;28;20302;-61
2023/12/21 07:25:00;;;;;;;7.32;3.38;;;;;;;-145.63;60.41;39395.84;5062502;28;20040;-62
2023/12/21 07:27:26;;;;;;;4.03;2.60;;;;;;;-145.63;60.00;39395.84;5062113;28;20172;-62
2023/12/21 07:29:51;;;;;;;5.82;3.10;;;;;;;-145.63;60.39;39391.91;5062426;28;20052;-61
2023/12/21 07:32:17;;;;;;;3.70;2.80;;;;;;;-145.63;60.16;39374.31;5062342;28;20103;-61
2023/12/21 07:34:43;;;;;;;6.88;2.97;;;;;;;-145.63;60.38;39372.34;5052502;28;20348;-61
2023/12/21 07:37:09;;;;;;;4.22;2.15;;;;;;;-145.63;60.25;39386.06;5050619;28;20107;-62
2023/12/21 07:39:35;;;;;;;4.25;2.60;;;;;;;-145.63;60.67;39405.59;5042530;28;20040;-62
2023/12/21 07:42:01;;;;;;;4.70;2.70;;;;;;;-145.63;59.98;39354.75;5061987;28;20320;-61
2023/12/21 07:44:27;;;;;;;2.65;2.08;;;;;;;-145.63;60.21;39388.00;5047608;28;20021;-62
2023/12/21 07:46:54;;;;;;;9.15;2.75;;;;;;;-145.63;60.25;39362.59;5055770;28;20163;-61
2023/12/21 07:49:20;;;;;;;3.10;2.80;;;;;;;-145.63;60.15;39380.19;5040036;28;20053;-62
2023/12/21 07:51:46;;;;;;;5.35;2.60;;;;;;;-145.63;60.21;39389.97;5062190;28;20094;-61
2023/12/21 07:54:12;;;;;;;3.10;2.28;;;;;;;-145.63;60.75;39382.13;5062005;28;20088;-62
2023/12/21 07:56:38;;;;;;;4.65;2.80;;;;;;;-145.63;60.60;39370.41;5053782;28;20237;-62
2023/12/21 07:59:06;;;;;;;3.35;2.53;;;;;;;-145.63;60.87;39372.34;5061993;28;20041;-61
2023/12/21 08:01:32;;;;;;;4.78;2.70;;;;;;;-145.63;60.65;39397.78;5061286;28;20043;-62
2023/12/21 08:03:59;;;;;;;6.13;2.80;;;;;;;-145.63;60.92;39346.94;5061225;28;20037;-61
2023/12/21 08:06:25;;;;;;;3.83;2.78;;;;;;;-145.63;60.89;39341.06;5061584;28;20033;-61
2023/12/21 08:08:52;;;;;;;5.97;2.78;;;;;;;-145.63;60.77;39343.03;5058047;28;20025;-61
2023/12/21 08:11:21;;;;;;;3.45;2.45;;;;;;;-145.63;61.33;39382.13;5061420;28;20233;-62
2023/12/21 08:13:47;;;;;;;3.85;2.70;;;;;;;-145.63;61.72;39388.00;5051592;28;20233;-62
2023/12/21 08:16:13;;;;;;;7.18;2.40;;;;;;;-145.63;61.56;39380.19;5042930;28;20041;-62
2023/12/21 08:18:38;;;;;;;3.55;2.55;;;;;;;-145.63;61.74;39360.63;5046095;28;20037;-62
2023/12/21 08:21:04;;;;;;;3.42;2.45;;;;;;;-145.63;61.54;39364.53;5054984;28;20131;-62
2023/12/21 08:23:30;;;;;;;4.55;2.65;;;;;;;-145.63;61.53;39378.22;5063977;28;20044;-62
2023/12/21 08:25:56;;;;;;;6.43;2.65;;;;;;;-145.63;61.59;39391.91;5065776;28;20234;-62
2023/12/21 08:28:25;;;;;;;4.32;2.70;;;;;;;-145.63;61.38;39399.75;5065022;28;20128;-61
2023/12/21 08:30:51;;;;;;;3.85;2.88;;;;;;;-145.63;61.29;39380.19;5064429;28;20032;-61
2023/12/21 08:33:17;;;;;;;4.13;2.90;;;;;;;-145.63;61.11;39384.09;5065460;28;20273;-62
2023/12/21 08:35:42;;;;;;;6.75;2.88;;;;;;;-145.63;61.06;39374.31;5081092;28;20045;-62
2023/12/21 08:38:08;;;;;;;6.35;2.88;;;;;;;-145.63;61.32;39393.88;5052837;28;20033;-61
2023/12/21 08:40:35;;;;;;;3.00;2.60;;;;;;;-145.63;60.86;39372.34;5053428;28;20048;-61
2023/12/21 08:43:02;;;;;;;8.88;2.88;;;;;;;-145.63;60.86;39391.91;5065102;28;20132;-61
2023/12/21 08:45:28;;;;;;;3.70;2.72;;;;;;;-145.63;61.13;39376.28;5065164;28;20036;-61
2023/12/21 08:47:54;;;;;;;3.05;2.42;;;;;;;-145.63;60.89;39362.59;5064657;28;20055;-62
2023/12/21 08:50:20;;;;;;;4.93;2.92;;;;;;;-145.63;61.09;39356.72;5063162;28;20025;-62
2023/12/21 08:52:45;;;;;;;6.68;3.20;;;;;;;-145.63;61.02;39372.34;5063700;28;20325;-62
2023/12/21 08:55:11;;;;;;;6.20;2.80;;;;;;;-145.63;60.63;39388.00;5064933;28;20039;-62
2023/12/21 08:57:37;;;;;;;3.20;2.60;;;;;;;-145.63;60.87;39389.97;5064199;28;20059;-64
2023/12/21 09:00:14;;;;;;;2.70;2.50;;;;;;;-145.63;60.92;39389.97;5062562;28;20246;-62
2023/12/21 09:02:40;;;;;;;2.72;2.20;;;;;;;-145.63;60.55;39356.72;5060872;28;20033;-62
2023/12/21 09:05:06;;;;;;;2.95;2.00;;;;;;;-145.63;60.56;39335.19;5062530;28;20187;-61
2023/12/21 09:07:34;;;;;;;2.45;2.10;;;;;;;-145.63;60.84;39337.16;5055799;28;20026;-63
2023/12/21 09:10:00;;;;;;;2.80;2.60;;;;;;;-145.63;60.88;39384.09;5050425;28;20068;-63
2023/12/21 09:12:26;;;;;;;3.15;2.55;;;;;;;-145.63;60.79;39501.44;5064575;28;20024;-63
2023/12/21 09:14:53;;;;;;;3.75;2.55;;;;;;;-145.63;60.42;39362.59;5054748;28;20383;-62
2023/12/21 09:17:19;;;;;;;4.30;2.70;;;;;;;-145.63;60.46;39368.44;5060909;28;20336;-62
2023/12/21 09:19:45;;;;;;;2.90;2.63;;;;;;;-145.63;60.50;39393.88;5062281;28;20029;-63
2023/12/21 09:22:11;;;;;;;4.22;2.85;;;;;;;-145.63;60.03;39384.09;5060996;28;20025;-63
2023/12/21 09:24:40;;;;;;;3.58;2.67;;;;;;;-145.63;60.40;39368.44;5064152;28;20233;-63
2023/12/21 09:27:06;;;;;;;4.63;2.50;;;;;;;-145.63;60.23;39395.84;5061678;28;20294;-62
2023/12/21 09:29:32;;;;;;;5.57;2.80;;;;;;;-145.63;60.73;39401.69;5063309;28;20063;-63
2023/12/21 09:31:59;;;;;;;4.88;2.60;;;;;;;-145.63;60.21;39399.75;5061282;28;20040;-62
2023/12/21 09:34:25;;;;;;;4.22;2.70;;;;;;;-145.63;60.05;39376.28;5060781;28;20103;-63
2023/12/21 09:36:53;;;;;;;4.35;2.40;;;;;;;-145.63;59.92;39370.41;5059724;28;20071;-63
2023/12/21 09:39:19;;;;;;;4.45;2.88;;;;;;;-145.63;60.02;39393.88;5058845;28;20111;-63
2023/12/21 09:41:45;;;;;;;8.43;2.80;;;;;;;-145.63;60.37;39407.56;5058199;28;20431;-63
2023/12/21 09:44:16;;;;;;;3.70;2.70;;;;;;;-145.63;60.05;39391.91;5063446;28;20032;-63
2023/12/21 09:46:45;;;;;;;;;;;;;;;-145.63;59.46;39382.13;5058367;28;20285;-62
2023/12/21 09:49:16;;;;;;;3.25;2.60;;;;;;;-145.63;59.11;39391.91;5061245;28;19904;-64
2023/12/21 09:51:44;;;;;;;3.22;2.30;;;;;;;-145.63;59.39;39352.81;5061309;28;20053;-63
2023/12/21 09:54:11;;;;;;;3.63;2.80;;;;;;;-145.63;59.20;39343.03;5062252;28;20461;-63
2023/12/21 09:56:37;;;;;;;4.35;2.88;;;;;;;-145.63;59.04;39364.53;5061260;28;20194;-61
2023/12/21 09:59:04;;;;;;;6.32;2.38;;;;;;;-145.63;59.05;39380.19;5063244;28;20294;-62
2023/12/21 10:01:30;;;;;;;2.92;2.38;;;;;;;-145.63;59.26;39364.53;5060789;28;20037;-63
2023/12/21 10:03:59;;;;;;;3.83;2.53;;;;;;;-145.63;58.73;39401.69;5058126;28;20055;-61
2023/12/21 10:06:26;;;;;;;3.10;2.70;;;;;;;-145.63;58.95;39395.84;5063607;28;20044;-62
2023/12/21 10:08:52;;;;;;;3.45;2.67;;;;;;;-145.63;59.03;39407.56;5063171;28;20029;-62
2023/12/21 10:11:19;;;;;;;4.90;2.63;;;;;;;-145.63;59.40;39380.19;5063206;28;20037;-61
2023/12/21 10:13:47;;;;;;;4.68;2.95;;;;;;;-145.63;58.62;39431.03;5063729;28;20316;-60
2023/12/21 10:16:13;;;;;;;3.25;2.20;;;;;;;-145.63;59.06;39380.19;5063667;28;20036;-60
2023/12/21 10:18:40;;;;;;;4.72;2.45;;;;;;;-145.63;58.87;39391.91;5063249;28;20029;-60
2023/12/21 10:21:05;;;;;;;2.53;2.33;;;;;;;-145.63;59.26;39356.72;5063043;28;20017;-61
2023/12/21 10:23:31;;;;;;;3.15;2.70;;;;;;;-145.63;59.59;39384.09;5063275;28;20028;-62
2023/12/21 10:25:58;;;;;;;2.20;1.98;;;;;;;-145.63;58.98;39364.53;5065778;28;20025;-62
2023/12/21 10:28:24;;;;;;;3.03;2.28;;;;;;;-145.63;58.61;39380.19;5062006;28;20111;-62
2023/12/21 10:31:02;;;;;;;2.92;1.67;;;;;;;-145.63;57.83;39366.50;5062971;28;20041;-61
2023/12/21 10:33:29;;;;;;;2.17;1.98;;;;;;;-145.63;57.90;39393.88;5063296;28;20044;-62
2023/12/21 10:35:54;;;;;;;2.28;1.75;;;;;;;-145.63;57.53;39382.13;5063444;28;20111;-61
2023/12/21 10:38:22;;;;;;;3.03;2.10;;;;;;;-145.63;57.84;39362.59;5060714;28;20044;-62
2023/12/21 10:40:49;;;;;;;2.03;1.70;;;;;;;-145.63;57.66;39391.91;5056996;28;20039;-61
2023/12/21 10:43:16;;;;;;;2.15;1.88;;;;;;;-145.63;57.63;39409.53;5062375;28;20033;-61
2023/12/21 10:45:47;;;;;;;3.10;1.95;;;;;;;-145.63;57.23;39362.59;5062782;28;20052;-61
2023/12/21 10:48:16;;;;;;;4.25;2.13;;;;;;;-145.63;57.45;39397.78;5053485;28;20202;-63
2023/12/21 10:50:47;;;;;;;3.22;1.92;;;;;;;-145.63;57.45;39348.88;5061737;28;20317;-62
2023/12/21 10:53:14;;;;;;;3.95;1.90;;;;;;;-145.63;56.36;39393.88;5063033;28;20056;-64
2023/12/21 10:55:43;;;;;;;3.53;1.77;;;;;;;-145.63;56.63;39397.78;5062595;28;20060;-63
2023/12/21 10:58:11;;;;;;;5.05;1.70;;;;;;;-145.63;56.36;39395.84;5062150;28;20055;-65
2023/12/21 11:00:37;;;;;;;1.65;1.55;;;;;;;-145.63;56.12;39194.38;5062255;28;20155;-63
2023/12/21 11:03:05;;;;;;;3.22;1.63;;;;;;;-145.63;56.21;39360.63;5062550;28;20047;-63
2023/12/21 11:05:33;;;;;;;2.42;1.70;;;;;;;-145.63;55.79;39395.84;5048190;28;20024;-62
2023/12/21 11:08:00;;;;;;;3.55;1.90;;;;;;;-145.63;55.41;39364.53;5056735;28;20040;-62
2023/12/21 11:10:26;;;;;;;2.30;1.80;;;;;;;-145.63;55.97;39356.72;5057171;28;20029;-62
2023/12/21 11:12:52;;;;;;;3.15;2.40;;;;;;;-145.63;56.62;39403.66;5044361;28;20029;-62